Airfield :







YOU CAN JOIN US ON...

 
LOGIN :

Register | Disclaimer

   EN    FR    IT 

 









Legend :    VFR   Marginal VFR   IFR   Intensive IFR   Very Intensive IFR
Visi :
Ceiling :
>= 8 km
>= 3000ft
5 to 8 km
1000 to 3000 ft
1500m to 5 km
500 to 1000 ft
800 to 1500m
200 to 500 ft
< 800m
< 200 ft
Symbols :   Thunderstorms  Fog  Heavy snow  Heavy precipitations  Wind > 20 kt







- Airport Elevation : 129 ft
- IATA code : YVP


CYVP - Kuujjuak

CURRENT METAR :
  • 190500Z 26006KT 15SM FEW050 BKN140 M23/M26 A3007 RMK SC1AS4 SLP191

EXPIRED METARs :
  • 190400Z 24003KT 220V300 15SM FEW050 FEW150 M23/M26 A3008 RMK SC1AC1 SLP192
  • 190300Z 23003KT 15SM FEW055 M22/M26 A3009 RMK SC2 SLP197

TAF TAF CYVP
Valid from the 19 at 00:00 until the 19 at 12:00 UTC


182338Z 1900/1912 27008G18KT P6SM FEW020
TEMPO 1901/1907 BKN020 RMK NXT FCST BY 190600Z
CZUL FIR / North America



MET'MAP, your aeronautical weather chart ! - Copyright ORBIFLY December 2007 - Disclaimer

ORBIFLY MET'MAP TEAM :

Programming & Development : Alexandra Zaïnal
Concept & Development : Baudouin d'Aumeries
Co-Development & Prog : Marc-Olivier Méhu
Technical & hardware support : Manuel Goepfert

Contact : metmap@orbifly.com




SOURCES & CREDITS :

   NOAA